createdAt,value
2017-07-09T00:00:37.436Z,20.56
2017-07-09T00:03:05.176Z,20.54
2017-07-09T00:05:32.872Z,20.56
2017-07-09T00:08:00.643Z,20.53
2017-07-09T00:10:28.357Z,20.77
2017-07-09T00:12:56.062Z,20.69
2017-07-09T00:15:23.952Z,20.52
2017-07-09T00:17:51.738Z,20.48
2017-07-09T00:20:19.426Z,20.49
2017-07-09T00:22:47.143Z,20.32
2017-07-09T00:25:14.899Z,20.37
2017-07-09T00:27:42.611Z,20.38
2017-07-09T00:30:10.313Z,20.32
2017-07-09T00:32:38.125Z,20.34
2017-07-09T00:35:05.839Z,20.30
2017-07-09T00:37:38.594Z,20.37
2017-07-09T00:40:06.642Z,20.33
2017-07-09T00:42:35.750Z,20.29
2017-07-09T00:45:03.750Z,20.36
2017-07-09T00:47:31.669Z,20.14
2017-07-09T00:49:59.690Z,20.21
2017-07-09T00:52:28.421Z,20.15
2017-07-09T00:54:57.961Z,20.06
2017-07-09T00:57:26.092Z,20.00
2017-07-09T00:59:54.740Z,19.90
2017-07-09T01:02:23.749Z,19.93
2017-07-09T01:04:51.762Z,19.94
2017-07-09T01:07:19.635Z,19.81
2017-07-09T01:09:47.749Z,19.70
2017-07-09T01:12:17.166Z,19.63
2017-07-09T01:14:47.834Z,19.65
2017-07-09T01:17:18.173Z,19.66
2017-07-09T01:19:46.195Z,19.62
2017-07-09T01:22:14.700Z,19.45
2017-07-09T01:24:44.674Z,19.49
2017-07-09T01:27:13.497Z,19.56
2017-07-09T01:29:41.593Z,19.46
2017-07-09T01:32:11.896Z,19.44
2017-07-09T01:34:41.090Z,19.42
2017-07-09T01:37:09.984Z,19.29
2017-07-09T01:39:38.806Z,19.43
2017-07-09T01:42:07.151Z,19.33
2017-07-09T01:44:35.773Z,19.30
2017-07-09T01:47:03.846Z,19.20
2017-07-09T01:49:31.803Z,19.21
2017-07-09T01:52:00.521Z,19.13
2017-07-09T01:54:28.520Z,19.23
2017-07-09T01:56:56.662Z,19.16
2017-07-09T01:59:26.456Z,19.13
2017-07-09T02:01:54.516Z,19.12
2017-07-09T02:04:25.881Z,18.96
2017-07-09T02:06:53.918Z,19.02
2017-07-09T02:09:21.991Z,18.88
2017-07-09T02:11:50.023Z,18.80
2017-07-09T02:14:21.815Z,18.73
2017-07-09T02:16:52.468Z,18.81
2017-07-09T02:19:24.645Z,18.70
2017-07-09T02:21:52.759Z,18.67
2017-07-09T02:24:20.855Z,18.68
2017-07-09T02:26:48.807Z,18.47
2017-07-09T02:29:17.677Z,18.55
2017-07-09T02:31:46.501Z,18.50
2017-07-09T02:34:14.454Z,18.43
2017-07-09T02:36:42.392Z,18.35
2017-07-09T02:39:11.604Z,18.37
2017-07-09T02:41:39.586Z,18.23
2017-07-09T02:44:07.691Z,18.33
2017-07-09T02:46:37.086Z,18.40
2017-07-09T02:51:39.327Z,18.21
2017-07-09T02:54:07.384Z,18.10
2017-07-09T02:56:35.377Z,17.75
2017-07-09T02:59:04.492Z,17.92
2017-07-09T03:01:32.438Z,18.00
2017-07-09T03:04:00.570Z,17.90
2017-07-09T03:06:30.614Z,17.83
2017-07-09T03:09:01.757Z,17.97
2017-07-09T03:11:29.765Z,18.02
2017-07-09T03:13:57.819Z,17.83
2017-07-09T03:16:25.754Z,17.88
2017-07-09T03:18:53.817Z,18.02
2017-07-09T03:23:56.332Z,18.09
2017-07-09T03:26:25.430Z,17.93
2017-07-09T03:28:55.554Z,17.90
2017-07-09T03:31:23.660Z,17.97
2017-07-09T03:33:52.091Z,18.09
2017-07-09T03:36:20.078Z,18.05
2017-07-09T03:38:48.127Z,17.95
2017-07-09T03:41:16.100Z,17.71
2017-07-09T03:43:44.345Z,17.81
2017-07-09T03:46:12.199Z,17.76
2017-07-09T03:48:41.010Z,17.82
2017-07-09T03:51:09.623Z,17.81
2017-07-09T03:53:37.677Z,17.63
2017-07-09T03:56:06.255Z,17.69
2017-07-09T03:58:34.252Z,17.80
2017-07-09T04:01:03.178Z,17.75
2017-07-09T04:03:31.966Z,17.60
2017-07-09T04:05:59.943Z,17.71
2017-07-09T04:08:28.002Z,17.67
2017-07-09T04:10:56.042Z,17.64
2017-07-09T04:13:24.399Z,17.71
2017-07-09T04:15:57.011Z,17.63
2017-07-09T04:18:25.050Z,17.73
2017-07-09T04:20:53.900Z,17.90
2017-07-09T04:23:22.638Z,17.74
2017-07-09T04:25:50.669Z,17.72
2017-07-09T04:28:19.739Z,17.65
2017-07-09T04:30:47.836Z,17.59
2017-07-09T04:33:16.766Z,17.63
2017-07-09T04:35:44.760Z,17.70
2017-07-09T04:38:13.370Z,17.73
2017-07-09T04:40:41.352Z,17.88
2017-07-09T04:43:09.410Z,17.90
2017-07-09T04:45:40.692Z,17.92
2017-07-09T04:48:09.621Z,18.02
2017-07-09T04:50:40.922Z,18.20
2017-07-09T04:53:09.886Z,18.31
2017-07-09T04:55:38.001Z,18.39
2017-07-09T04:58:07.832Z,18.64
2017-07-09T05:00:36.060Z,18.84
2017-07-09T05:03:04.129Z,19.19
2017-07-09T05:05:32.129Z,19.45
2017-07-09T05:08:03.054Z,19.57
2017-07-09T05:10:33.951Z,19.47
2017-07-09T05:13:02.133Z,19.83
2017-07-09T05:15:30.106Z,20.15
2017-07-09T05:17:58.233Z,20.35
2017-07-09T05:20:27.134Z,20.53
2017-07-09T05:22:56.918Z,20.93
2017-07-09T05:25:26.123Z,20.92
2017-07-09T05:27:54.159Z,21.05
2017-07-09T05:30:22.120Z,21.20
2017-07-09T05:32:50.495Z,21.45
2017-07-09T05:35:18.471Z,21.64
2017-07-09T05:37:46.615Z,21.62
2017-07-09T05:40:14.672Z,21.82
2017-07-09T05:42:42.620Z,22.19
2017-07-09T05:45:10.643Z,22.28
2017-07-09T05:47:39.351Z,22.47
2017-07-09T05:50:07.386Z,22.16
2017-07-09T05:52:35.252Z,21.74
2017-07-09T05:55:03.190Z,21.50
2017-07-09T05:57:31.109Z,21.28
2017-07-09T05:59:59.939Z,21.69
2017-07-09T06:02:28.684Z,21.96
2017-07-09T06:04:56.650Z,21.79
2017-07-09T06:07:26.193Z,21.35
2017-07-09T06:09:57.126Z,21.61
2017-07-09T06:12:25.120Z,22.11
2017-07-09T06:14:53.061Z,21.82
2017-07-09T06:17:21.114Z,21.80
2017-07-09T06:19:50.004Z,21.89
2017-07-09T06:22:19.828Z,22.59
2017-07-09T06:24:47.859Z,22.14
2017-07-09T06:29:52.502Z,21.88
2017-07-09T06:32:22.917Z,22.44
2017-07-09T06:34:51.827Z,22.18
2017-07-09T06:37:19.903Z,22.48
2017-07-09T06:39:48.384Z,22.86
2017-07-09T06:42:16.282Z,22.89
2017-07-09T06:44:44.185Z,22.86
2017-07-09T06:47:12.232Z,23.21
2017-07-09T06:49:40.301Z,23.39
2017-07-09T06:52:09.365Z,24.13
2017-07-09T06:54:37.246Z,24.34
2017-07-09T06:57:05.287Z,23.88
2017-07-09T06:59:33.194Z,24.65
2017-07-09T07:02:01.578Z,24.83
2017-07-09T07:04:30.420Z,24.16
2017-07-09T07:06:58.598Z,24.72
2017-07-09T07:09:27.865Z,24.25
2017-07-09T07:11:55.891Z,24.24
2017-07-09T07:14:23.945Z,24.10
2017-07-09T07:16:52.001Z,23.70
2017-07-09T07:19:19.950Z,24.39
2017-07-09T07:21:49.600Z,24.36
2017-07-09T07:24:19.459Z,24.74
2017-07-09T07:26:48.269Z,24.77
2017-07-09T07:29:16.407Z,24.68
2017-07-09T07:31:45.122Z,24.54
2017-07-09T07:34:13.173Z,24.40
2017-07-09T07:36:41.290Z,24.56
2017-07-09T07:39:09.553Z,24.32
2017-07-09T07:41:37.596Z,24.02
2017-07-09T07:44:06.735Z,24.02
2017-07-09T07:46:34.725Z,24.16
2017-07-09T07:49:02.767Z,24.26
2017-07-09T07:51:30.765Z,25.00
2017-07-09T07:53:58.732Z,25.08
2017-07-09T07:56:26.630Z,25.33
2017-07-09T07:58:54.698Z,24.79
2017-07-09T08:01:22.771Z,24.49
2017-07-09T08:03:50.645Z,24.81
2017-07-09T08:06:18.527Z,24.64
2017-07-09T08:08:46.468Z,24.92
2017-07-09T08:11:14.385Z,24.48
2017-07-09T08:13:42.267Z,24.97
2017-07-09T08:16:10.268Z,25.50
2017-07-09T08:18:38.110Z,25.64
2017-07-09T08:21:06.168Z,25.40
2017-07-09T08:23:34.943Z,25.64
2017-07-09T08:26:02.945Z,26.09
2017-07-09T08:28:31.084Z,25.63
2017-07-09T08:30:59.637Z,25.46
2017-07-09T08:33:27.733Z,25.39
2017-07-09T08:35:56.766Z,25.10
2017-07-09T08:38:24.642Z,25.26
2017-07-09T08:40:54.243Z,25.36
2017-07-09T08:43:24.153Z,25.59
2017-07-09T08:45:52.047Z,25.28
2017-07-09T08:48:20.241Z,25.48
2017-07-09T08:50:48.275Z,25.73
2017-07-09T08:53:17.079Z,25.79
2017-07-09T08:55:45.119Z,25.63
2017-07-09T08:58:13.909Z,24.99
2017-07-09T09:00:42.182Z,25.51
2017-07-09T09:03:14.310Z,25.75
2017-07-09T09:05:49.231Z,25.89
2017-07-09T09:08:23.296Z,25.59
2017-07-09T09:10:51.726Z,25.39
2017-07-09T09:13:21.182Z,25.63
2017-07-09T09:15:49.175Z,25.54
2017-07-09T09:18:17.147Z,25.73
2017-07-09T09:20:45.221Z,25.53
2017-07-09T09:23:16.775Z,26.12
2017-07-09T09:25:45.267Z,26.08
2017-07-09T09:28:13.488Z,25.85
2017-07-09T09:30:42.251Z,25.69
2017-07-09T09:33:11.385Z,26.11
2017-07-09T09:35:39.499Z,26.60
2017-07-09T09:38:07.512Z,26.28
2017-07-09T09:40:36.166Z,26.08
2017-07-09T09:43:04.723Z,26.13
2017-07-09T09:45:34.084Z,26.01
2017-07-09T09:48:02.097Z,26.69
2017-07-09T09:50:30.071Z,26.82
2017-07-09T09:52:58.471Z,27.22
2017-07-09T09:55:28.724Z,27.17
2017-07-09T09:57:56.918Z,27.41
2017-07-09T10:00:24.923Z,27.29
2017-07-09T10:02:52.830Z,27.10
2017-07-09T10:05:20.845Z,27.11
2017-07-09T10:07:48.748Z,26.95
2017-07-09T10:10:16.887Z,27.10
2017-07-09T10:12:44.919Z,27.47
2017-07-09T10:15:13.876Z,28.00
2017-07-09T10:17:42.661Z,27.67
2017-07-09T10:20:10.572Z,28.05
2017-07-09T10:22:38.552Z,28.18
2017-07-09T10:25:06.495Z,28.70
2017-07-09T10:27:34.485Z,28.45
2017-07-09T10:30:02.301Z,28.85
2017-07-09T10:32:30.216Z,28.31
2017-07-09T10:34:58.217Z,28.53
2017-07-09T10:37:26.955Z,29.19
2017-07-09T10:39:56.028Z,29.47
2017-07-09T10:42:23.851Z,29.63
2017-07-09T10:44:51.880Z,29.43
2017-07-09T10:47:19.844Z,29.54
2017-07-09T10:49:47.668Z,29.39
2017-07-09T10:52:16.631Z,29.22
2017-07-09T10:54:44.557Z,29.44
2017-07-09T10:57:12.379Z,29.54
2017-07-09T10:59:40.346Z,29.44
2017-07-09T11:02:08.150Z,29.34
2017-07-09T11:04:36.028Z,29.55
2017-07-09T11:07:04.155Z,30.28
2017-07-09T11:09:32.104Z,30.26
2017-07-09T11:12:00.026Z,30.58
2017-07-09T11:14:28.097Z,30.05
2017-07-09T11:16:56.004Z,29.92
2017-07-09T11:19:24.678Z,30.28
2017-07-09T11:21:52.554Z,30.18
2017-07-09T11:24:20.507Z,30.66
2017-07-09T11:26:48.629Z,30.27
2017-07-09T11:29:16.544Z,30.17
2017-07-09T11:31:44.572Z,30.55
2017-07-09T11:34:13.532Z,30.25
2017-07-09T11:36:42.835Z,30.85
2017-07-09T11:39:10.857Z,30.51
2017-07-09T11:41:38.747Z,30.74
2017-07-09T11:44:06.771Z,30.82
2017-07-09T11:46:34.594Z,30.59
2017-07-09T11:49:02.472Z,30.92
2017-07-09T11:51:30.548Z,30.51
2017-07-09T11:56:33.447Z,30.74
2017-07-09T11:59:01.407Z,30.77
2017-07-09T12:01:29.558Z,30.31
2017-07-09T12:03:57.550Z,30.60
2017-07-09T12:06:25.573Z,30.50
2017-07-09T12:08:53.799Z,30.55
2017-07-09T12:11:21.731Z,30.14
2017-07-09T12:13:49.815Z,30.56
2017-07-09T12:16:17.787Z,30.79
2017-07-09T12:18:45.791Z,30.01
2017-07-09T12:21:13.737Z,29.99
2017-07-09T12:23:43.538Z,29.67
2017-07-09T12:26:12.816Z,29.73
2017-07-09T12:28:40.961Z,29.87
2017-07-09T12:31:09.764Z,29.57
2017-07-09T12:33:38.183Z,29.81
2017-07-09T12:36:07.162Z,29.28
2017-07-09T12:38:35.240Z,29.43
2017-07-09T12:41:03.234Z,29.64
2017-07-09T12:43:31.317Z,29.16
2017-07-09T12:45:59.413Z,29.34
2017-07-09T12:48:27.695Z,29.50
2017-07-09T12:50:55.599Z,29.46
2017-07-09T12:53:24.375Z,29.58
2017-07-09T12:55:52.459Z,29.41
2017-07-09T12:58:20.389Z,29.03
2017-07-09T13:00:48.399Z,28.87
2017-07-09T13:03:16.395Z,28.81
2017-07-09T13:08:18.395Z,28.25
2017-07-09T13:10:46.392Z,28.25
2017-07-09T13:13:14.546Z,28.10
2017-07-09T13:15:44.435Z,28.16
2017-07-09T13:18:12.441Z,28.15
2017-07-09T13:20:40.303Z,28.09
2017-07-09T13:23:08.469Z,28.09
2017-07-09T13:25:36.428Z,27.95
2017-07-09T13:28:04.391Z,28.03
2017-07-09T13:30:32.402Z,27.94
2017-07-09T13:33:01.444Z,28.09
2017-07-09T13:35:29.332Z,28.27
2017-07-09T13:37:57.167Z,28.35
2017-07-09T13:40:25.222Z,28.46
2017-07-09T13:42:53.285Z,28.54
2017-07-09T13:45:21.669Z,28.59
2017-07-09T13:47:49.457Z,28.60
2017-07-09T13:50:18.741Z,28.70
2017-07-09T13:52:47.315Z,28.80
2017-07-09T13:55:15.280Z,29.02
2017-07-09T13:57:43.252Z,29.31
2017-07-09T14:00:11.214Z,29.85
2017-07-09T14:02:39.107Z,29.82
2017-07-09T14:05:07.024Z,30.00
2017-07-09T14:07:35.100Z,30.21
2017-07-09T14:10:03.652Z,30.02
2017-07-09T14:12:32.039Z,30.09
2017-07-09T14:14:59.953Z,30.24
2017-07-09T14:17:27.843Z,30.37
2017-07-09T14:19:56.401Z,29.97
2017-07-09T14:22:24.299Z,29.80
2017-07-09T14:24:52.463Z,29.47
2017-07-09T14:27:20.365Z,29.65
2017-07-09T14:29:48.268Z,29.55
2017-07-09T14:32:16.061Z,30.07
2017-07-09T14:34:44.009Z,30.02
2017-07-09T14:37:12.018Z,29.97
2017-07-09T14:39:39.862Z,30.11
2017-07-09T14:42:07.734Z,29.94
2017-07-09T14:44:35.735Z,29.79
2017-07-09T14:47:03.636Z,30.05
2017-07-09T14:49:31.629Z,30.37
2017-07-09T14:51:59.493Z,30.35
2017-07-09T14:54:27.442Z,30.30
2017-07-09T14:56:55.447Z,30.48
2017-07-09T14:59:24.224Z,30.55
2017-07-09T15:01:52.063Z,30.50
2017-07-09T15:04:20.091Z,30.17
2017-07-09T15:06:48.065Z,30.23
2017-07-09T15:09:16.691Z,29.99
2017-07-09T15:11:45.061Z,29.93
2017-07-09T15:14:13.028Z,30.00
2017-07-09T15:16:42.405Z,30.09
2017-07-09T15:19:11.337Z,30.17
2017-07-09T15:21:39.222Z,30.64
2017-07-09T15:24:07.264Z,30.33
2017-07-09T15:26:35.249Z,30.40
2017-07-09T15:29:03.242Z,30.22
2017-07-09T15:31:31.152Z,30.31
2017-07-09T15:33:59.187Z,30.11
2017-07-09T15:36:28.000Z,29.98
2017-07-09T15:38:56.873Z,30.13
2017-07-09T15:41:24.919Z,30.23
2017-07-09T15:43:52.771Z,30.21
2017-07-09T15:46:20.724Z,30.21
2017-07-09T15:48:48.988Z,30.26
2017-07-09T15:51:16.905Z,30.03
2017-07-09T15:53:44.882Z,30.08
2017-07-09T15:56:12.882Z,29.87
2017-07-09T15:58:40.844Z,29.63
2017-07-09T16:01:08.795Z,29.85
2017-07-09T16:03:36.806Z,29.99
2017-07-09T16:06:04.931Z,29.71
2017-07-09T16:08:33.098Z,29.63
2017-07-09T16:11:01.065Z,29.27
2017-07-09T16:13:29.296Z,29.07
2017-07-09T16:15:57.287Z,28.98
2017-07-09T16:18:25.126Z,28.90
2017-07-09T16:20:54.121Z,28.81
2017-07-09T16:23:22.993Z,28.71
2017-07-09T16:25:50.915Z,28.67
2017-07-09T16:28:18.877Z,28.70
2017-07-09T16:30:47.651Z,28.45
2017-07-09T16:33:15.676Z,28.36
2017-07-09T16:35:43.654Z,28.31
2017-07-09T16:38:12.153Z,27.98
2017-07-09T16:40:40.101Z,27.93
2017-07-09T16:43:09.974Z,27.80
2017-07-09T16:45:41.440Z,27.70
2017-07-09T16:48:12.229Z,27.55
2017-07-09T16:50:40.244Z,27.47
2017-07-09T16:53:08.974Z,27.33
2017-07-09T16:55:36.903Z,27.21
2017-07-09T16:58:05.668Z,27.22
2017-07-09T17:00:33.648Z,27.13
2017-07-09T17:03:01.834Z,27.21
2017-07-09T17:05:31.646Z,27.08
2017-07-09T17:08:00.903Z,26.87
2017-07-09T17:10:29.005Z,26.85
2017-07-09T17:12:57.022Z,26.84
2017-07-09T17:15:25.561Z,26.76
2017-07-09T17:17:54.981Z,26.58
2017-07-09T17:20:23.534Z,26.51
2017-07-09T17:22:51.539Z,26.45
2017-07-09T17:25:19.980Z,26.27
2017-07-09T17:27:47.794Z,26.21
2017-07-09T17:30:15.602Z,26.23
2017-07-09T17:32:44.032Z,26.19
2017-07-09T17:35:11.867Z,26.17
2017-07-09T17:37:41.000Z,25.98
2017-07-09T17:40:09.029Z,25.91
2017-07-09T17:42:38.204Z,25.72
2017-07-09T17:45:06.198Z,25.70
2017-07-09T17:47:34.408Z,25.51
2017-07-09T17:50:02.678Z,25.58
2017-07-09T17:52:30.887Z,25.49
2017-07-09T17:54:58.870Z,25.50
2017-07-09T17:57:26.923Z,25.41
2017-07-09T17:59:55.872Z,25.40
2017-07-09T18:02:25.382Z,25.26
2017-07-09T18:04:53.439Z,25.27
2017-07-09T18:07:21.409Z,25.18
2017-07-09T18:09:51.365Z,24.96
2017-07-09T18:12:21.037Z,24.74
2017-07-09T18:14:49.069Z,24.57
2017-07-09T18:17:17.833Z,23.90
2017-07-09T18:19:48.437Z,23.34
2017-07-09T18:22:18.225Z,23.43
2017-07-09T18:24:50.005Z,23.31
2017-07-09T18:27:19.764Z,22.48
2017-07-09T18:29:55.303Z,22.38
2017-07-09T18:32:25.914Z,22.35
2017-07-09T18:34:57.039Z,22.42
2017-07-09T18:37:29.627Z,22.43
2017-07-09T18:40:01.051Z,22.22
2017-07-09T18:42:30.933Z,22.07
2017-07-09T18:44:59.874Z,22.00
2017-07-09T18:47:31.142Z,21.90
2017-07-09T18:50:02.032Z,21.78
2017-07-09T18:52:31.728Z,21.40
2017-07-09T18:55:01.186Z,21.11
2017-07-09T18:57:33.407Z,21.40
2017-07-09T19:00:03.142Z,21.30
2017-07-09T19:02:32.118Z,21.19
2017-07-09T19:05:00.433Z,21.39
2017-07-09T19:10:13.246Z,21.52
2017-07-09T19:12:42.889Z,21.60
2017-07-09T19:15:11.990Z,21.58
2017-07-09T19:17:41.739Z,21.69
2017-07-09T19:20:09.788Z,21.34
2017-07-09T19:22:39.149Z,21.48
2017-07-09T19:25:10.007Z,21.49
2017-07-09T19:27:37.738Z,21.53
2017-07-09T19:30:06.199Z,21.42
2017-07-09T19:32:35.875Z,21.22
2017-07-09T19:35:06.570Z,20.87
2017-07-09T19:37:35.139Z,20.76
2017-07-09T19:40:03.702Z,20.67
2017-07-09T19:42:31.761Z,20.99
2017-07-09T19:44:59.863Z,21.02
2017-07-09T19:47:28.339Z,20.58
2017-07-09T19:49:57.253Z,20.72
2017-07-09T19:52:25.194Z,20.64
2017-07-09T19:54:53.236Z,20.81
2017-07-09T19:57:20.979Z,20.73
2017-07-09T19:59:49.065Z,20.54
2017-07-09T20:02:16.838Z,20.32
2017-07-09T20:04:44.767Z,20.42
2017-07-09T20:07:12.569Z,20.15
2017-07-09T20:09:40.432Z,20.35
2017-07-09T20:12:08.347Z,20.45
2017-07-09T20:14:36.214Z,20.55
2017-07-09T20:17:04.000Z,20.62
2017-07-09T20:19:31.782Z,20.59
2017-07-09T20:21:59.591Z,20.60
2017-07-09T20:24:27.337Z,20.58
2017-07-09T20:26:55.087Z,20.54
2017-07-09T20:29:22.811Z,20.52
2017-07-09T20:31:50.743Z,20.28
2017-07-09T20:34:18.505Z,20.48
2017-07-09T20:36:46.237Z,20.35
2017-07-09T20:39:14.046Z,20.10
2017-07-09T20:41:41.997Z,20.27
2017-07-09T20:44:10.309Z,20.38
2017-07-09T20:46:38.148Z,20.06
2017-07-09T20:49:05.860Z,19.98
2017-07-09T20:51:33.694Z,20.02
2017-07-09T20:54:01.488Z,19.94
2017-07-09T20:56:30.375Z,19.97
2017-07-09T20:58:58.136Z,20.08
2017-07-09T21:01:26.017Z,20.07
2017-07-09T21:03:53.833Z,20.01
2017-07-09T21:06:21.545Z,20.14
2017-07-09T21:08:49.329Z,20.20
2017-07-09T21:11:17.126Z,20.26
2017-07-09T21:13:44.865Z,20.21
2017-07-09T21:16:12.675Z,19.97
2017-07-09T21:18:40.431Z,20.11
2017-07-09T21:21:08.136Z,20.14
2017-07-09T21:23:35.973Z,20.20
2017-07-09T21:26:03.777Z,19.92
2017-07-09T21:28:31.572Z,19.91
2017-07-09T21:30:59.332Z,19.99
2017-07-09T21:33:27.055Z,19.93
2017-07-09T21:35:54.800Z,20.08
2017-07-09T21:38:22.625Z,20.04
2017-07-09T21:40:50.328Z,19.69
2017-07-09T21:43:18.090Z,19.45
2017-07-09T21:45:45.914Z,19.49
2017-07-09T21:48:14.143Z,19.68
2017-07-09T21:50:42.615Z,19.74
2017-07-09T21:53:10.381Z,19.76
2017-07-09T21:55:38.196Z,19.61
2017-07-09T21:58:05.948Z,19.35
2017-07-09T22:00:33.701Z,19.48
2017-07-09T22:03:01.434Z,19.42
2017-07-09T22:05:29.190Z,19.66
2017-07-09T22:07:56.897Z,19.69
2017-07-09T22:10:24.640Z,19.70
2017-07-09T22:12:53.442Z,19.64
2017-07-09T22:15:21.198Z,19.69
2017-07-09T22:17:48.901Z,19.77
2017-07-09T22:20:16.661Z,19.79
2017-07-09T22:22:44.443Z,19.75
2017-07-09T22:25:12.246Z,19.73
2017-07-09T22:27:39.959Z,19.70
2017-07-09T22:30:07.718Z,19.58
2017-07-09T22:32:35.473Z,19.60
2017-07-09T22:35:03.266Z,19.62
2017-07-09T22:37:30.972Z,19.40
2017-07-09T22:39:58.730Z,19.27
2017-07-09T22:42:26.510Z,19.18
2017-07-09T22:44:54.249Z,19.36
2017-07-09T22:47:22.009Z,19.40
2017-07-09T22:49:49.700Z,19.29
2017-07-09T22:52:17.501Z,19.38
2017-07-09T22:54:45.566Z,19.39
2017-07-09T22:57:13.273Z,19.32
2017-07-09T22:59:40.984Z,19.45
2017-07-09T23:02:09.192Z,19.51
2017-07-09T23:04:36.908Z,19.35
2017-07-09T23:07:04.590Z,19.27
2017-07-09T23:09:32.371Z,19.24
2017-07-09T23:12:00.263Z,19.31
2017-07-09T23:14:27.973Z,19.26
2017-07-09T23:16:55.658Z,19.33
2017-07-09T23:19:23.447Z,19.03
2017-07-09T23:21:51.215Z,18.88
2017-07-09T23:24:18.958Z,18.81
2017-07-09T23:26:46.809Z,19.10
2017-07-09T23:29:14.688Z,19.15
2017-07-09T23:31:42.467Z,19.18
2017-07-09T23:34:10.253Z,19.10
2017-07-09T23:36:38.095Z,19.00
2017-07-09T23:39:05.790Z,18.89
2017-07-09T23:41:33.519Z,18.87
2017-07-09T23:44:01.271Z,18.92
2017-07-09T23:46:28.981Z,18.83
2017-07-09T23:48:56.806Z,18.85
2017-07-09T23:51:24.514Z,18.80
2017-07-09T23:53:52.219Z,18.72
2017-07-09T23:56:20.054Z,18.75
2017-07-09T23:58:47.768Z,18.70
